Thursday, February 11, 2016
13:11 UTC
  |  Log In   |  Register Free
Airport Search:

Orlando Sanford International Airport
(KSFB)

FAA data valid effective Feb 4 2016 - Mar 31 2016 (unless otherwise noted).

 
 
 
 
 
 
 
 
 
 
 
 
 
 
Current Aviation Weather for KSFB

Weather Summary


The most recent METAR observation for SFB was updated at: 12:53 UTC
METAR for KSFB is not available. Closest METAR is for KORL
KSFB  (most recent observation was updatred at 11:11 UTC)
111153Z 31004KT 10SM CLR 01/M01 A3032 RMK AO2 SLP268 T00061011 10044 20006 51021

KORL  (14.8 nm NE)   (most recent observation was updated at 11:11 UTC)
111153Z 32003KT 10SM CLR 06/00 A3032 RMK AO2 SLP274 T00560000 10067 20044 51022

KDED  (17.6 nm SE)   (most recent observation was updated at 11:12 UTC)
111215Z AUTO 00000KT 00/M01 A3034 RMK AO1

TAF for KSFB is not available.
KSFB
111124Z 1112/1212 31006KT P6SM SKC FM112000 24004KT P6SM SKC

KMCO  (21.2 nm NE)   (most recent observation was updatred at 11:11 UTC)
111124Z 1112/1212 32005KT P6SM SKC FM120000 24005KT P6SM SKC


KDAB  (25.9 nm SW)   (most recent observation was updatred at 11:11 UTC)
111124Z 1112/1212 32005KT P6SM SKC FM112000 VRB04KT P6SM SKC
GlobalAir.com is loading additional information.
 Current Weather at SFB
33.0 F° (0.6 C°)

Northwest winds at 4.6 mph
Pressure:
30.32 in
Humidity:
89%
Wind:
Northwest at 4.6 mph
Dew Point:
30.0 F° (-1.1 C°)
Visibility:
10.00 mi
SFB NOAA Radar




Find All Airport Services Find A Hotel Find A Rental Car Find A Golf Course Find A Restaurant $100 Hamburger



Airport Weather Forecast for KSFB

Translated METAR for KSFB (1153 UTC)
METAR:
KSFB 111153Z 31004KT 10SM CLR 01/M01 A3032 RMK AO2 SLP268 T00061011 10044 20006 51021
Conditions at:
KSFB (Orlando Sanford Intl, FL) observed 1153 UTC 11 February 2016
Temperature:
1°C (33.8°F)
Dewpoint:
-1°C (30.2°F) [RH = 86.5]
Pressure:
30.32 inches Hg (1026.8 mb)
pressure at sea level is 268 in Hg
Winds:
from the NW (310 degrees) at 4.6 mph (4 knots: 2.1 m/s)
Visibility:
10 mile(s)
Ceiling:
at least 12,000 feet AGL
Clouds:
Clear below 12,000 feet AGL
Remarks:
site is automated and HAS a precipitation sensor

Translated TAF for KSFB (Orlando Sanford Intl, FL) (1124 UTC)
TAF text:
KSFB 111124Z 1112/1212 31006KT P6SM SKC
Forecast period:
Thursday Feb 11 2016 12:00 UTC - Friday Feb 12 2016 12:00 UTC
Forecast type:
FROM: standard forecast or significant change
Winds:
from the NW (310 degrees) at 6.9 mph (6 knots: 3.1 m/s)
Visibility:
6 or more mile(s) (9.7+ km)
Ceiling:
at least 12,000 feet AGL
Clouds:
Clear Skies
Weather:
no significant weather observed at this time
TAF text:
FM112000 24004KT P6SM SKC
Forecast period:
Thursday Feb 11 2016 20:00 UTC - Friday Feb 12 2016 12:00 UTC
Forecast type:
FROM: standard forecast or significant change
Winds:
from the WSW (240 degrees) at 4.6 mph (4 knots: 2.1 m/s)
Visibility:
6 or more mile(s) (9.7+ km)
Ceiling:
at least 12,000 feet AGL
Clouds:
Clear Skies
Weather:
no significant weather observed at this time
FBO's on the Field
FBO Company Facility Photos Services Transportation Aviation Fuel Prices: Prices include tax
Catering Weather Repair Courtesy Rental Type 100LL JetA JetA+ MOGAS 8087
 
StarPort

StarPort logo
Currently rated 5 by 7 people
FS:
Last Updated: Feb-09
Login to update fuel prices
SS:
Contact StarPortMore FBO Information
 
Million Air Sanford

Currently rated 5 by 3 people
FS:Avfuel
Last Updated: Feb-09
Login to update fuel prices
SS:
Contact Million Air SanfordMore FBO Information
 
Add another FBO Facility Photos Catering Weather Repair Courtesy Rental Type 100LL JetA JetA+ MOGAS 8087
Services Transportation Aviation Fuel Prices: Prices include tax


model-print
model-print
model-print
model-print